sensor_id;sensor_type;location;lat;lon;timestamp;temperature;humidity
36586;DHT22;22591;48.314;11.562;2023-04-16T00:01:21;6.30;99.90
36586;DHT22;22591;48.314;11.562;2023-04-16T00:03:47;6.20;99.90
36586;DHT22;22591;48.314;11.562;2023-04-16T00:06:12;6.20;99.90
36586;DHT22;22591;48.314;11.562;2023-04-16T00:08:38;6.10;99.90
36586;DHT22;22591;48.314;11.562;2023-04-16T00:11:05;6.10;99.90
36586;DHT22;22591;48.314;11.562;2023-04-16T00:13:31;6.10;99.90
36586;DHT22;22591;48.314;11.562;2023-04-16T00:15:56;6.10;99.90
36586;DHT22;22591;48.314;11.562;2023-04-16T00:18:23;6.10;99.90
36586;DHT22;22591;48.314;11.562;2023-04-16T00:20:49;6.10;99.90
36586;DHT22;22591;48.314;11.562;2023-04-16T00:23:15;6.00;99.90
36586;DHT22;22591;48.314;11.562;2023-04-16T00:25:41;6.10;99.90
36586;DHT22;22591;48.314;11.562;2023-04-16T00:28:07;6.00;99.90
36586;DHT22;22591;48.314;11.562;2023-04-16T00:30:33;6.00;99.90
36586;DHT22;22591;48.314;11.562;2023-04-16T00:32:59;6.00;99.90
36586;DHT22;22591;48.314;11.562;2023-04-16T00:35:25;6.00;99.90
36586;DHT22;22591;48.314;11.562;2023-04-16T00:37:51;6.00;99.90
36586;DHT22;22591;48.314;11.562;2023-04-16T00:40:16;6.00;99.90
36586;DHT22;22591;48.314;11.562;2023-04-16T00:42:42;6.00;99.90
36586;DHT22;22591;48.314;11.562;2023-04-16T00:45:08;6.00;99.90
36586;DHT22;22591;48.314;11.562;2023-04-16T00:47:34;6.00;99.90
36586;DHT22;22591;48.314;11.562;2023-04-16T00:50:01;6.00;99.90
36586;DHT22;22591;48.314;11.562;2023-04-16T00:52:27;6.00;99.90
36586;DHT22;22591;48.314;11.562;2023-04-16T00:54:53;6.00;99.90
36586;DHT22;22591;48.314;11.562;2023-04-16T00:57:19;5.90;99.90
36586;DHT22;22591;48.314;11.562;2023-04-16T00:59:48;5.90;99.90
36586;DHT22;22591;48.314;11.562;2023-04-16T01:02:14;6.00;99.90
36586;DHT22;22591;48.314;11.562;2023-04-16T01:04:39;6.00;99.90
36586;DHT22;22591;48.314;11.562;2023-04-16T01:07:05;6.00;99.90
36586;DHT22;22591;48.314;11.562;2023-04-16T01:09:31;6.00;99.90
36586;DHT22;22591;48.314;11.562;2023-04-16T01:11:56;6.10;99.90
36586;DHT22;22591;48.314;11.562;2023-04-16T01:14:22;6.10;99.90
36586;DHT22;22591;48.314;11.562;2023-04-16T01:16:47;6.10;99.90
36586;DHT22;22591;48.314;11.562;2023-04-16T01:19:13;6.00;99.90
36586;DHT22;22591;48.314;11.562;2023-04-16T01:21:38;6.00;99.90
36586;DHT22;22591;48.314;11.562;2023-04-16T01:24:04;6.00;99.90
36586;DHT22;22591;48.314;11.562;2023-04-16T01:26:30;6.00;99.90
36586;DHT22;22591;48.314;11.562;2023-04-16T01:28:56;6.00;99.90
36586;DHT22;22591;48.314;11.562;2023-04-16T01:31:21;6.00;99.90
36586;DHT22;22591;48.314;11.562;2023-04-16T01:33:47;6.00;99.90
36586;DHT22;22591;48.314;11.562;2023-04-16T01:36:13;6.00;99.90
36586;DHT22;22591;48.314;11.562;2023-04-16T01:38:38;6.00;99.90
36586;DHT22;22591;48.314;11.562;2023-04-16T01:41:04;6.00;99.90
36586;DHT22;22591;48.314;11.562;2023-04-16T01:43:29;6.00;99.90
36586;DHT22;22591;48.314;11.562;2023-04-16T01:48:34;6.00;99.90
36586;DHT22;22591;48.314;11.562;2023-04-16T01:50:59;6.00;99.90
36586;DHT22;22591;48.314;11.562;2023-04-16T01:53:25;6.00;99.90
36586;DHT22;22591;48.314;11.562;2023-04-16T01:55:50;6.00;99.90
36586;DHT22;22591;48.314;11.562;2023-04-16T01:58:16;6.00;99.90
36586;DHT22;22591;48.314;11.562;2023-04-16T02:00:42;6.00;99.90
36586;DHT22;22591;48.314;11.562;2023-04-16T02:03:07;6.10;99.90
36586;DHT22;22591;48.314;11.562;2023-04-16T02:05:33;6.00;99.90
36586;DHT22;22591;48.314;11.562;2023-04-16T02:07:59;6.10;99.90
36586;DHT22;22591;48.314;11.562;2023-04-16T02:10:25;6.00;99.90
36586;DHT22;22591;48.314;11.562;2023-04-16T02:12:50;6.10;99.90
36586;DHT22;22591;48.314;11.562;2023-04-16T02:15:16;6.00;99.90
36586;DHT22;22591;48.314;11.562;2023-04-16T02:17:42;6.10;99.90
36586;DHT22;22591;48.314;11.562;2023-04-16T02:20:08;6.10;99.90
36586;DHT22;22591;48.314;11.562;2023-04-16T02:22:35;6.00;99.90
36586;DHT22;22591;48.314;11.562;2023-04-16T02:25:00;6.10;99.90
36586;DHT22;22591;48.314;11.562;2023-04-16T02:27:26;6.10;99.90
36586;DHT22;22591;48.314;11.562;2023-04-16T02:29:51;6.10;99.90
36586;DHT22;22591;48.314;11.562;2023-04-16T02:32:17;6.00;99.90
36586;DHT22;22591;48.314;11.562;2023-04-16T02:34:42;6.00;99.90
36586;DHT22;22591;48.314;11.562;2023-04-16T02:37:08;6.00;99.90
36586;DHT22;22591;48.314;11.562;2023-04-16T02:39:34;6.10;99.90
36586;DHT22;22591;48.314;11.562;2023-04-16T02:42:00;6.00;99.90
36586;DHT22;22591;48.314;11.562;2023-04-16T02:44:26;6.10;99.90
36586;DHT22;22591;48.314;11.562;2023-04-16T02:46:52;6.10;99.90
36586;DHT22;22591;48.314;11.562;2023-04-16T02:49:18;6.00;99.90
36586;DHT22;22591;48.314;11.562;2023-04-16T02:51:43;6.10;99.90
36586;DHT22;22591;48.314;11.562;2023-04-16T02:54:08;6.10;99.90
36586;DHT22;22591;48.314;11.562;2023-04-16T02:56:34;6.10;99.90
36586;DHT22;22591;48.314;11.562;2023-04-16T02:59:00;6.10;99.90
36586;DHT22;22591;48.314;11.562;2023-04-16T03:01:25;6.10;99.90
36586;DHT22;22591;48.314;11.562;2023-04-16T03:03:52;6.10;99.90
36586;DHT22;22591;48.314;11.562;2023-04-16T03:06:18;6.10;99.90
36586;DHT22;22591;48.314;11.562;2023-04-16T03:08:43;6.00;99.90
36586;DHT22;22591;48.314;11.562;2023-04-16T03:11:09;6.00;99.90
36586;DHT22;22591;48.314;11.562;2023-04-16T03:13:34;6.00;99.90
36586;DHT22;22591;48.314;11.562;2023-04-16T03:16:00;6.10;99.90
36586;DHT22;22591;48.314;11.562;2023-04-16T03:18:26;6.10;99.90
36586;DHT22;22591;48.314;11.562;2023-04-16T03:20:52;6.00;99.90
36586;DHT22;22591;48.314;11.562;2023-04-16T03:23:18;6.10;99.90
36586;DHT22;22591;48.314;11.562;2023-04-16T03:25:44;6.10;99.90
36586;DHT22;22591;48.314;11.562;2023-04-16T03:28:12;6.10;99.90
36586;DHT22;22591;48.314;11.562;2023-04-16T03:30:38;6.10;99.90
36586;DHT22;22591;48.314;11.562;2023-04-16T03:33:03;6.10;99.90
36586;DHT22;22591;48.314;11.562;2023-04-16T03:35:29;6.10;99.90
36586;DHT22;22591;48.314;11.562;2023-04-16T03:37:54;6.00;99.90
36586;DHT22;22591;48.314;11.562;2023-04-16T03:40:20;6.10;99.90
36586;DHT22;22591;48.314;11.562;2023-04-16T03:42:46;6.10;99.90
36586;DHT22;22591;48.314;11.562;2023-04-16T03:45:11;6.10;99.90
36586;DHT22;22591;48.314;11.562;2023-04-16T03:47:37;6.10;99.90
36586;DHT22;22591;48.314;11.562;2023-04-16T03:50:02;6.00;99.90
36586;DHT22;22591;48.314;11.562;2023-04-16T03:52:28;6.00;99.90
36586;DHT22;22591;48.314;11.562;2023-04-16T03:54:53;6.10;99.90
36586;DHT22;22591;48.314;11.562;2023-04-16T03:57:19;6.10;99.90
36586;DHT22;22591;48.314;11.562;2023-04-16T03:59:45;6.10;99.90
36586;DHT22;22591;48.314;11.562;2023-04-16T04:02:10;6.10;99.90
36586;DHT22;22591;48.314;11.562;2023-04-16T04:04:36;6.10;99.90
36586;DHT22;22591;48.314;11.562;2023-04-16T04:07:01;6.10;99.90
36586;DHT22;22591;48.314;11.562;2023-04-16T04:09:27;6.10;99.90
36586;DHT22;22591;48.314;11.562;2023-04-16T04:11:52;6.10;99.90
36586;DHT22;22591;48.314;11.562;2023-04-16T04:14:18;6.10;99.90
36586;DHT22;22591;48.314;11.562;2023-04-16T04:16:43;6.20;99.90
36586;DHT22;22591;48.314;11.562;2023-04-16T04:19:09;6.00;99.90
36586;DHT22;22591;48.314;11.562;2023-04-16T04:21:35;6.00;99.90
36586;DHT22;22591;48.314;11.562;2023-04-16T04:24:00;6.00;99.90
36586;DHT22;22591;48.314;11.562;2023-04-16T04:26:26;6.00;99.90
36586;DHT22;22591;48.314;11.562;2023-04-16T04:28:51;6.00;99.90
36586;DHT22;22591;48.314;11.562;2023-04-16T04:31:17;6.00;99.90
36586;DHT22;22591;48.314;11.562;2023-04-16T04:33:42;6.00;99.90
36586;DHT22;22591;48.314;11.562;2023-04-16T04:36:08;6.00;99.90
36586;DHT22;22591;48.314;11.562;2023-04-16T04:38:33;6.00;99.90
36586;DHT22;22591;48.314;11.562;2023-04-16T04:40:59;5.90;99.90
36586;DHT22;22591;48.314;11.562;2023-04-16T04:43:25;6.00;99.90
36586;DHT22;22591;48.314;11.562;2023-04-16T04:45:50;6.00;99.90
36586;DHT22;22591;48.314;11.562;2023-04-16T04:48:16;5.90;99.90
36586;DHT22;22591;48.314;11.562;2023-04-16T04:50:43;6.00;99.90
36586;DHT22;22591;48.314;11.562;2023-04-16T04:53:09;6.00;99.90
36586;DHT22;22591;48.314;11.562;2023-04-16T04:55:36;6.00;99.90
36586;DHT22;22591;48.314;11.562;2023-04-16T04:58:02;5.90;99.90
36586;DHT22;22591;48.314;11.562;2023-04-16T05:00:30;6.00;99.90
36586;DHT22;22591;48.314;11.562;2023-04-16T05:02:56;6.00;99.90
36586;DHT22;22591;48.314;11.562;2023-04-16T05:05:21;6.10;99.90
36586;DHT22;22591;48.314;11.562;2023-04-16T05:07:47;6.10;99.90
36586;DHT22;22591;48.314;11.562;2023-04-16T05:10:13;6.10;99.90
36586;DHT22;22591;48.314;11.562;2023-04-16T05:12:38;6.10;99.90
36586;DHT22;22591;48.314;11.562;2023-04-16T05:15:04;6.20;99.90
36586;DHT22;22591;48.314;11.562;2023-04-16T05:17:30;6.20;99.90
36586;DHT22;22591;48.314;11.562;2023-04-16T05:19:56;6.30;99.90
36586;DHT22;22591;48.314;11.562;2023-04-16T05:22:21;6.30;99.90
36586;DHT22;22591;48.314;11.562;2023-04-16T05:24:47;6.30;99.90
36586;DHT22;22591;48.314;11.562;2023-04-16T05:27:12;6.30;99.90
36586;DHT22;22591;48.314;11.562;2023-04-16T05:29:38;6.40;99.90
36586;DHT22;22591;48.314;11.562;2023-04-16T05:32:03;6.40;99.90
36586;DHT22;22591;48.314;11.562;2023-04-16T05:34:29;6.50;99.90
36586;DHT22;22591;48.314;11.562;2023-04-16T05:36:55;6.40;99.90
36586;DHT22;22591;48.314;11.562;2023-04-16T05:39:20;6.40;99.90
36586;DHT22;22591;48.314;11.562;2023-04-16T05:41:46;6.50;99.90
36586;DHT22;22591;48.314;11.562;2023-04-16T05:44:11;6.50;99.90
36586;DHT22;22591;48.314;11.562;2023-04-16T05:46:37;6.60;99.90
36586;DHT22;22591;48.314;11.562;2023-04-16T05:49:02;6.60;99.90
36586;DHT22;22591;48.314;11.562;2023-04-16T05:51:28;6.60;99.90
36586;DHT22;22591;48.314;11.562;2023-04-16T05:53:53;6.50;99.90
36586;DHT22;22591;48.314;11.562;2023-04-16T05:56:19;6.60;99.90
36586;DHT22;22591;48.314;11.562;2023-04-16T05:58:46;6.70;99.90
36586;DHT22;22591;48.314;11.562;2023-04-16T06:01:11;6.80;99.90
36586;DHT22;22591;48.314;11.562;2023-04-16T06:03:37;7.00;99.90
36586;DHT22;22591;48.314;11.562;2023-04-16T06:06:02;7.00;99.90
36586;DHT22;22591;48.314;11.562;2023-04-16T06:08:28;7.10;99.90
36586;DHT22;22591;48.314;11.562;2023-04-16T06:10:53;7.20;99.90
36586;DHT22;22591;48.314;11.562;2023-04-16T06:13:19;7.30;99.90
36586;DHT22;22591;48.314;11.562;2023-04-16T06:15:45;7.50;99.90
36586;DHT22;22591;48.314;11.562;2023-04-16T06:18:11;7.50;99.90
36586;DHT22;22591;48.314;11.562;2023-04-16T06:20:36;7.60;99.90
36586;DHT22;22591;48.314;11.562;2023-04-16T06:23:02;7.70;99.90
36586;DHT22;22591;48.314;11.562;2023-04-16T06:25:27;7.70;99.90
36586;DHT22;22591;48.314;11.562;2023-04-16T06:27:53;7.60;99.90
36586;DHT22;22591;48.314;11.562;2023-04-16T06:30:18;7.60;99.90
36586;DHT22;22591;48.314;11.562;2023-04-16T06:32:44;7.70;99.90
36586;DHT22;22591;48.314;11.562;2023-04-16T06:35:11;7.90;99.90
36586;DHT22;22591;48.314;11.562;2023-04-16T06:37:36;8.10;99.90
36586;DHT22;22591;48.314;11.562;2023-04-16T06:40:02;8.00;99.90
36586;DHT22;22591;48.314;11.562;2023-04-16T06:42:28;8.10;99.90
36586;DHT22;22591;48.314;11.562;2023-04-16T06:44:54;8.10;99.90
36586;DHT22;22591;48.314;11.562;2023-04-16T06:47:19;8.10;99.90
36586;DHT22;22591;48.314;11.562;2023-04-16T06:49:45;8.00;99.90
36586;DHT22;22591;48.314;11.562;2023-04-16T06:52:11;8.00;99.90
36586;DHT22;22591;48.314;11.562;2023-04-16T06:54:37;7.90;99.90
36586;DHT22;22591;48.314;11.562;2023-04-16T06:57:02;7.80;99.90
36586;DHT22;22591;48.314;11.562;2023-04-16T06:59:28;7.80;99.90
36586;DHT22;22591;48.314;11.562;2023-04-16T07:01:53;7.80;99.90
36586;DHT22;22591;48.314;11.562;2023-04-16T07:04:19;7.90;99.90
36586;DHT22;22591;48.314;11.562;2023-04-16T07:06:45;8.00;99.90
36586;DHT22;22591;48.314;11.562;2023-04-16T07:09:11;8.10;99.90
36586;DHT22;22591;48.314;11.562;2023-04-16T07:11:36;8.20;99.90
36586;DHT22;22591;48.314;11.562;2023-04-16T07:14:02;8.40;99.90
36586;DHT22;22591;48.314;11.562;2023-04-16T07:16:28;8.50;99.90
36586;DHT22;22591;48.314;11.562;2023-04-16T07:18:53;8.60;99.90
36586;DHT22;22591;48.314;11.562;2023-04-16T07:21:19;8.60;99.90
36586;DHT22;22591;48.314;11.562;2023-04-16T07:23:45;8.70;99.90
36586;DHT22;22591;48.314;11.562;2023-04-16T07:26:10;8.70;99.90
36586;DHT22;22591;48.314;11.562;2023-04-16T07:28:36;8.80;99.90
36586;DHT22;22591;48.314;11.562;2023-04-16T07:31:02;8.80;99.90
36586;DHT22;22591;48.314;11.562;2023-04-16T07:33:27;8.80;99.90
36586;DHT22;22591;48.314;11.562;2023-04-16T07:35:53;8.90;99.90
36586;DHT22;22591;48.314;11.562;2023-04-16T07:38:18;8.90;99.90
36586;DHT22;22591;48.314;11.562;2023-04-16T07:40:44;8.90;99.90
36586;DHT22;22591;48.314;11.562;2023-04-16T07:43:09;8.70;99.90
36586;DHT22;22591;48.314;11.562;2023-04-16T07:45:35;8.60;99.90
36586;DHT22;22591;48.314;11.562;2023-04-16T07:48:00;8.30;99.90
36586;DHT22;22591;48.314;11.562;2023-04-16T07:50:26;8.20;99.90
36586;DHT22;22591;48.314;11.562;2023-04-16T07:52:52;8.20;99.90
36586;DHT22;22591;48.314;11.562;2023-04-16T07:55:18;8.30;99.90
36586;DHT22;22591;48.314;11.562;2023-04-16T07:57:44;8.30;99.90
36586;DHT22;22591;48.314;11.562;2023-04-16T08:00:09;8.40;99.90
36586;DHT22;22591;48.314;11.562;2023-04-16T08:02:35;8.50;99.90
36586;DHT22;22591;48.314;11.562;2023-04-16T08:05:01;8.70;99.90
36586;DHT22;22591;48.314;11.562;2023-04-16T08:07:27;9.00;99.90
36586;DHT22;22591;48.314;11.562;2023-04-16T08:09:53;9.10;99.90
36586;DHT22;22591;48.314;11.562;2023-04-16T08:12:19;9.10;99.90
36586;DHT22;22591;48.314;11.562;2023-04-16T08:14:45;9.20;99.90
36586;DHT22;22591;48.314;11.562;2023-04-16T08:17:12;9.30;99.90
36586;DHT22;22591;48.314;11.562;2023-04-16T08:19:38;9.60;99.90
36586;DHT22;22591;48.314;11.562;2023-04-16T08:22:04;9.70;99.90
36586;DHT22;22591;48.314;11.562;2023-04-16T08:24:29;9.80;99.90
36586;DHT22;22591;48.314;11.562;2023-04-16T08:26:55;10.20;99.90
36586;DHT22;22591;48.314;11.562;2023-04-16T08:29:21;10.30;99.90
36586;DHT22;22591;48.314;11.562;2023-04-16T08:31:49;10.60;99.90
36586;DHT22;22591;48.314;11.562;2023-04-16T08:34:14;10.50;99.90
36586;DHT22;22591;48.314;11.562;2023-04-16T08:36:40;10.60;99.90
36586;DHT22;22591;48.314;11.562;2023-04-16T08:39:06;10.60;99.90
36586;DHT22;22591;48.314;11.562;2023-04-16T08:41:33;10.60;99.90
36586;DHT22;22591;48.314;11.562;2023-04-16T08:44:05;10.70;99.90
36586;DHT22;22591;48.314;11.562;2023-04-16T08:46:35;10.60;99.90
36586;DHT22;22591;48.314;11.562;2023-04-16T08:49:01;10.70;99.90
36586;DHT22;22591;48.314;11.562;2023-04-16T08:51:33;10.90;99.90
36586;DHT22;22591;48.314;11.562;2023-04-16T08:54:03;11.30;99.90
36586;DHT22;22591;48.314;11.562;2023-04-16T08:56:30;11.40;99.90
36586;DHT22;22591;48.314;11.562;2023-04-16T08:58:56;11.60;99.90
36586;DHT22;22591;48.314;11.562;2023-04-16T09:01:24;11.70;99.90
36586;DHT22;22591;48.314;11.562;2023-04-16T09:03:51;12.00;99.90
36586;DHT22;22591;48.314;11.562;2023-04-16T09:06:17;12.00;99.90
36586;DHT22;22591;48.314;11.562;2023-04-16T09:08:44;11.90;99.90
36586;DHT22;22591;48.314;11.562;2023-04-16T09:11:12;11.90;99.90
36586;DHT22;22591;48.314;11.562;2023-04-16T09:13:38;11.80;99.90
36586;DHT22;22591;48.314;11.562;2023-04-16T09:16:05;11.50;99.90
36586;DHT22;22591;48.314;11.562;2023-04-16T09:18:31;11.40;99.90
36586;DHT22;22591;48.314;11.562;2023-04-16T09:20:57;11.40;99.90
36586;DHT22;22591;48.314;11.562;2023-04-16T09:23:22;11.80;99.90
36586;DHT22;22591;48.314;11.562;2023-04-16T09:25:49;12.20;99.90
36586;DHT22;22591;48.314;11.562;2023-04-16T09:28:40;12.70;99.90
36586;DHT22;22591;48.314;11.562;2023-04-16T09:31:16;13.50;99.90
36586;DHT22;22591;48.314;11.562;2023-04-16T09:33:43;13.70;99.90
36586;DHT22;22591;48.314;11.562;2023-04-16T09:36:09;13.70;99.90
36586;DHT22;22591;48.314;11.562;2023-04-16T09:38:48;13.50;99.90
36586;DHT22;22591;48.314;11.562;2023-04-16T09:41:15;13.40;99.90
36586;DHT22;22591;48.314;11.562;2023-04-16T09:43:48;13.20;99.90
36586;DHT22;22591;48.314;11.562;2023-04-16T09:46:13;13.20;99.90
36586;DHT22;22591;48.314;11.562;2023-04-16T09:48:39;13.10;99.90
36586;DHT22;22591;48.314;11.562;2023-04-16T09:51:05;13.00;99.90
36586;DHT22;22591;48.314;11.562;2023-04-16T09:53:31;13.30;99.90
36586;DHT22;22591;48.314;11.562;2023-04-16T09:55:59;13.50;99.90
36586;DHT22;22591;48.314;11.562;2023-04-16T09:58:25;13.70;99.90
36586;DHT22;22591;48.314;11.562;2023-04-16T10:01:00;13.60;99.90
36586;DHT22;22591;48.314;11.562;2023-04-16T10:03:30;13.30;99.90
36586;DHT22;22591;48.314;11.562;2023-04-16T10:05:59;13.00;99.90
36586;DHT22;22591;48.314;11.562;2023-04-16T10:08:25;13.00;99.90
36586;DHT22;22591;48.314;11.562;2023-04-16T10:10:53;12.90;99.90
36586;DHT22;22591;48.314;11.562;2023-04-16T10:13:20;12.60;99.90
36586;DHT22;22591;48.314;11.562;2023-04-16T10:15:45;12.40;99.90
36586;DHT22;22591;48.314;11.562;2023-04-16T10:18:11;12.10;99.90
36586;DHT22;22591;48.314;11.562;2023-04-16T10:20:38;12.10;99.90
36586;DHT22;22591;48.314;11.562;2023-04-16T10:23:04;12.10;99.90
36586;DHT22;22591;48.314;11.562;2023-04-16T10:25:31;12.20;99.90
36586;DHT22;22591;48.314;11.562;2023-04-16T10:27:57;12.10;99.90
36586;DHT22;22591;48.314;11.562;2023-04-16T10:30:24;11.80;99.90
36586;DHT22;22591;48.314;11.562;2023-04-16T10:32:51;11.70;99.90
36586;DHT22;22591;48.314;11.562;2023-04-16T10:35:20;11.60;99.90
36586;DHT22;22591;48.314;11.562;2023-04-16T10:37:46;11.50;99.90
36586;DHT22;22591;48.314;11.562;2023-04-16T10:40:22;11.50;99.90
36586;DHT22;22591;48.314;11.562;2023-04-16T10:42:55;11.50;99.90
36586;DHT22;22591;48.314;11.562;2023-04-16T10:45:26;11.80;99.90
36586;DHT22;22591;48.314;11.562;2023-04-16T10:47:57;11.80;99.90
36586;DHT22;22591;48.314;11.562;2023-04-16T10:50:23;11.90;99.90
36586;DHT22;22591;48.314;11.562;2023-04-16T10:52:48;12.10;99.90
36586;DHT22;22591;48.314;11.562;2023-04-16T10:55:37;12.20;99.90
36586;DHT22;22591;48.314;11.562;2023-04-16T10:58:29;12.60;99.90
36586;DHT22;22591;48.314;11.562;2023-04-16T11:00:58;12.90;99.90
36586;DHT22;22591;48.314;11.562;2023-04-16T11:03:24;12.90;99.90
36586;DHT22;22591;48.314;11.562;2023-04-16T11:05:50;13.10;99.90
36586;DHT22;22591;48.314;11.562;2023-04-16T11:08:15;13.30;99.90
36586;DHT22;22591;48.314;11.562;2023-04-16T11:10:41;13.60;99.90
36586;DHT22;22591;48.314;11.562;2023-04-16T11:13:06;13.70;99.90
36586;DHT22;22591;48.314;11.562;2023-04-16T11:15:33;13.60;99.90
36586;DHT22;22591;48.314;11.562;2023-04-16T11:17:59;13.40;99.90
36586;DHT22;22591;48.314;11.562;2023-04-16T11:20:26;13.50;99.90
36586;DHT22;22591;48.314;11.562;2023-04-16T11:22:55;13.30;99.90
36586;DHT22;22591;48.314;11.562;2023-04-16T11:25:26;13.30;99.90
36586;DHT22;22591;48.314;11.562;2023-04-16T11:27:52;13.60;99.90
36586;DHT22;22591;48.314;11.562;2023-04-16T11:30:33;13.50;99.90
36586;DHT22;22591;48.314;11.562;2023-04-16T11:33:03;13.40;99.90
36586;DHT22;22591;48.314;11.562;2023-04-16T11:35:29;13.50;99.90
36586;DHT22;22591;48.314;11.562;2023-04-16T11:37:55;13.60;99.90
36586;DHT22;22591;48.314;11.562;2023-04-16T11:40:21;13.60;99.90
36586;DHT22;22591;48.314;11.562;2023-04-16T11:42:47;13.50;99.90
36586;DHT22;22591;48.314;11.562;2023-04-16T11:45:12;13.50;99.90
36586;DHT22;22591;48.314;11.562;2023-04-16T11:47:56;13.50;99.90
36586;DHT22;22591;48.314;11.562;2023-04-16T11:52:48;13.90;99.90
36586;DHT22;22591;48.314;11.562;2023-04-16T11:55:14;14.10;99.70
36586;DHT22;22591;48.314;11.562;2023-04-16T11:57:40;14.20;99.80
36586;DHT22;22591;48.314;11.562;2023-04-16T12:00:06;14.10;99.70
36586;DHT22;22591;48.314;11.562;2023-04-16T12:02:38;13.80;99.10
36586;DHT22;22591;48.314;11.562;2023-04-16T12:05:06;13.70;99.50
36586;DHT22;22591;48.314;11.562;2023-04-16T12:07:43;13.60;99.20
36586;DHT22;22591;48.314;11.562;2023-04-16T12:10:10;13.50;99.20
36586;DHT22;22591;48.314;11.562;2023-04-16T12:12:36;13.40;99.60
36586;DHT22;22591;48.314;11.562;2023-04-16T12:15:02;13.30;99.90
36586;DHT22;22591;48.314;11.562;2023-04-16T12:17:29;13.50;99.90
36586;DHT22;22591;48.314;11.562;2023-04-16T12:19:58;13.70;99.60
36586;DHT22;22591;48.314;11.562;2023-04-16T12:22:35;14.10;99.40
36586;DHT22;22591;48.314;11.562;2023-04-16T12:25:06;14.40;99.50
36586;DHT22;22591;48.314;11.562;2023-04-16T12:30:06;14.50;98.10
36586;DHT22;22591;48.314;11.562;2023-04-16T12:32:32;14.40;98.60
36586;DHT22;22591;48.314;11.562;2023-04-16T12:34:58;14.60;98.40
36586;DHT22;22591;48.314;11.562;2023-04-16T12:37:23;14.70;98.20
36586;DHT22;22591;48.314;11.562;2023-04-16T12:39:49;14.80;97.60
36586;DHT22;22591;48.314;11.562;2023-04-16T12:42:15;15.00;97.40
36586;DHT22;22591;48.314;11.562;2023-04-16T12:44:40;14.70;97.30
36586;DHT22;22591;48.314;11.562;2023-04-16T12:47:06;14.70;98.10
36586;DHT22;22591;48.314;11.562;2023-04-16T12:49:31;14.80;97.60
36586;DHT22;22591;48.314;11.562;2023-04-16T12:51:57;14.60;97.20
36586;DHT22;22591;48.314;11.562;2023-04-16T12:54:22;14.50;97.80
36586;DHT22;22591;48.314;11.562;2023-04-16T12:56:48;14.40;97.50
36586;DHT22;22591;48.314;11.562;2023-04-16T12:59:14;14.20;97.80
36586;DHT22;22591;48.314;11.562;2023-04-16T13:01:41;14.00;98.20
36586;DHT22;22591;48.314;11.562;2023-04-16T13:04:07;13.80;98.50
36586;DHT22;22591;48.314;11.562;2023-04-16T13:06:33;13.50;98.50
36586;DHT22;22591;48.314;11.562;2023-04-16T13:09:01;13.30;98.90
36586;DHT22;22591;48.314;11.562;2023-04-16T13:11:26;13.20;99.10
36586;DHT22;22591;48.314;11.562;2023-04-16T13:13:52;13.20;99.70
36586;DHT22;22591;48.314;11.562;2023-04-16T13:16:17;12.90;99.90
36586;DHT22;22591;48.314;11.562;2023-04-16T13:18:43;12.80;99.90
36586;DHT22;22591;48.314;11.562;2023-04-16T13:21:10;12.80;99.90
36586;DHT22;22591;48.314;11.562;2023-04-16T13:23:35;12.70;99.90
36586;DHT22;22591;48.314;11.562;2023-04-16T13:26:01;12.70;99.90
36586;DHT22;22591;48.314;11.562;2023-04-16T13:28:26;12.70;99.90
36586;DHT22;22591;48.314;11.562;2023-04-16T13:30:52;12.60;99.90
36586;DHT22;22591;48.314;11.562;2023-04-16T13:33:18;12.50;99.90
36586;DHT22;22591;48.314;11.562;2023-04-16T13:35:45;12.60;99.90
36586;DHT22;22591;48.314;11.562;2023-04-16T13:38:11;12.50;99.90
36586;DHT22;22591;48.314;11.562;2023-04-16T13:40:36;12.60;99.90
36586;DHT22;22591;48.314;11.562;2023-04-16T13:43:02;12.70;99.90
36586;DHT22;22591;48.314;11.562;2023-04-16T13:45:28;12.80;99.90
36586;DHT22;22591;48.314;11.562;2023-04-16T13:47:54;12.80;99.90
36586;DHT22;22591;48.314;11.562;2023-04-16T13:50:21;12.80;99.90
36586;DHT22;22591;48.314;11.562;2023-04-16T13:52:47;12.70;99.90
36586;DHT22;22591;48.314;11.562;2023-04-16T13:55:12;12.70;99.90
36586;DHT22;22591;48.314;11.562;2023-04-16T13:57:39;12.60;99.90
36586;DHT22;22591;48.314;11.562;2023-04-16T14:00:06;12.50;99.90
36586;DHT22;22591;48.314;11.562;2023-04-16T14:02:32;12.50;99.90
36586;DHT22;22591;48.314;11.562;2023-04-16T14:04:58;12.30;99.90
36586;DHT22;22591;48.314;11.562;2023-04-16T14:07:23;12.20;99.90
36586;DHT22;22591;48.314;11.562;2023-04-16T14:09:52;12.20;99.90
36586;DHT22;22591;48.314;11.562;2023-04-16T14:12:17;12.20;99.90
36586;DHT22;22591;48.314;11.562;2023-04-16T14:14:43;12.30;99.90
36586;DHT22;22591;48.314;11.562;2023-04-16T14:17:08;12.40;99.90
36586;DHT22;22591;48.314;11.562;2023-04-16T14:19:34;12.50;99.90
36586;DHT22;22591;48.314;11.562;2023-04-16T14:21:59;12.80;99.90
36586;DHT22;22591;48.314;11.562;2023-04-16T14:24:25;12.90;99.90
36586;DHT22;22591;48.314;11.562;2023-04-16T14:26:50;13.20;99.90
36586;DHT22;22591;48.314;11.562;2023-04-16T14:29:16;13.50;99.90
36586;DHT22;22591;48.314;11.562;2023-04-16T14:31:42;13.50;99.90
36586;DHT22;22591;48.314;11.562;2023-04-16T14:34:07;13.40;99.90
36586;DHT22;22591;48.314;11.562;2023-04-16T14:36:33;13.40;99.90
36586;DHT22;22591;48.314;11.562;2023-04-16T14:38:59;13.50;99.90
36586;DHT22;22591;48.314;11.562;2023-04-16T14:41:25;13.60;99.90
36586;DHT22;22591;48.314;11.562;2023-04-16T14:43:51;13.70;99.90
36586;DHT22;22591;48.314;11.562;2023-04-16T14:46:16;13.90;99.90
36586;DHT22;22591;48.314;11.562;2023-04-16T14:48:42;13.80;99.90
36586;DHT22;22591;48.314;11.562;2023-04-16T14:51:08;13.80;99.90
36586;DHT22;22591;48.314;11.562;2023-04-16T14:53:36;13.80;99.90
36586;DHT22;22591;48.314;11.562;2023-04-16T14:56:01;13.80;99.90
36586;DHT22;22591;48.314;11.562;2023-04-16T14:58:27;13.80;99.90
36586;DHT22;22591;48.314;11.562;2023-04-16T15:00:52;13.70;99.90
36586;DHT22;22591;48.314;11.562;2023-04-16T15:03:18;13.60;99.90
36586;DHT22;22591;48.314;11.562;2023-04-16T15:05:44;13.60;99.90
36586;DHT22;22591;48.314;11.562;2023-04-16T15:08:11;13.80;99.90
36586;DHT22;22591;48.314;11.562;2023-04-16T15:10:37;13.90;99.90
36586;DHT22;22591;48.314;11.562;2023-04-16T15:13:02;13.90;99.90
36586;DHT22;22591;48.314;11.562;2023-04-16T15:15:28;13.90;99.90
36586;DHT22;22591;48.314;11.562;2023-04-16T15:17:53;13.80;99.90
36586;DHT22;22591;48.314;11.562;2023-04-16T15:20:21;13.60;99.90
36586;DHT22;22591;48.314;11.562;2023-04-16T15:22:46;13.40;99.90
36586;DHT22;22591;48.314;11.562;2023-04-16T15:25:12;13.40;99.90
36586;DHT22;22591;48.314;11.562;2023-04-16T15:27:38;13.50;99.90